createdAt,value
2023-05-05T07:19:50.748Z,70.45
2023-05-05T13:29:45.446Z,74.90
2023-05-05T13:44:27.425Z,74.38
2023-05-05T13:45:34.476Z,64.02
2023-05-05T13:46:35.267Z,65.02
2023-05-05T13:47:39.458Z,67.24
2023-05-05T13:48:34.438Z,67.68
2023-05-05T13:49:34.427Z,73.61
2023-05-05T13:50:36.609Z,72.71
2023-05-05T13:51:36.621Z,75.53
2023-05-05T13:52:35.667Z,75.53
2023-05-05T13:53:34.865Z,76.37
2023-05-05T13:54:34.371Z,77.78
2023-05-05T13:55:34.369Z,75.26
2023-05-05T13:56:39.241Z,77.68
2023-05-05T13:57:34.352Z,75.36
2023-05-05T13:58:37.733Z,74.99
2023-05-05T13:59:35.118Z,77.82
2023-05-05T14:00:34.296Z,78.02
2023-05-05T14:01:38.979Z,76.40
2023-05-05T14:02:34.929Z,76.91
2023-05-05T14:03:36.379Z,79.93
2023-05-05T14:04:34.888Z,77.98
2023-05-05T14:05:36.956Z,78.19
2023-05-05T14:07:51.802Z,74.90
2023-05-05T14:09:01.156Z,75.70
2023-05-05T14:09:58.846Z,73.58
2023-05-05T14:11:03.515Z,76.20
2023-05-05T14:13:22.718Z,73.65
2023-05-05T14:46:51.304Z,74.26
2023-05-05T14:51:29.801Z,72.71
2023-05-05T14:52:38.012Z,71.60
2023-05-05T14:54:53.283Z,72.11
2023-05-05T14:56:02.702Z,73.32
2023-05-05T14:57:01.700Z,74.52
2023-05-05T14:58:01.690Z,75.79
2023-05-05T14:59:01.843Z,73.58
2023-05-05T15:00:00.566Z,73.38
2023-05-05T15:01:00.798Z,76.20
2023-05-05T15:02:02.772Z,77.61
2023-05-05T15:03:00.589Z,74.35
2023-05-05T15:04:00.281Z,71.73
2023-05-05T15:05:00.686Z,71.43
2023-05-05T15:06:00.778Z,73.24
2023-05-05T15:07:02.819Z,72.67
2023-05-05T15:08:02.328Z,73.38
2023-05-05T15:09:00.164Z,71.97
2023-05-05T15:10:02.349Z,73.38
2023-05-05T15:11:01.261Z,70.83
2023-05-05T18:43:53.845Z,91.47
2023-05-05T18:44:56.413Z,91.47
2023-05-05T18:45:58.830Z,92.12
2023-05-05T18:46:56.134Z,93.80
2023-05-05T19:02:21.025Z,93.54
2023-05-05T19:03:26.267Z,93.13
2023-05-05T19:04:31.207Z,93.44
2023-05-05T19:05:30.427Z,93.79
